createdAt,value
2018-07-10T00:02:46.728Z,13.53
2018-07-10T00:05:37.289Z,12.40
2018-07-10T00:10:33.220Z,11.57
2018-07-10T00:13:15.713Z,12.23
2018-07-10T00:15:58.311Z,11.73
2018-07-10T00:18:40.947Z,10.17
2018-07-10T00:21:23.794Z,17.00
2018-07-10T00:24:06.428Z,12.23
2018-07-10T00:26:49.072Z,12.10
2018-07-10T00:29:31.779Z,12.57
2018-07-10T00:32:14.503Z,11.03
2018-07-10T00:34:57.020Z,17.50
2018-07-10T00:37:39.913Z,10.53
2018-07-10T00:40:22.288Z,9.73
2018-07-10T00:43:09.175Z,12.83
2018-07-10T00:45:51.544Z,8.37
2018-07-10T00:48:34.850Z,12.00
2018-07-10T00:51:17.521Z,12.10
2018-07-10T00:54:00.071Z,14.13
2018-07-10T00:56:43.504Z,9.20
2018-07-10T00:59:25.907Z,11.77
2018-07-10T01:02:08.952Z,10.87
2018-07-10T01:04:52.065Z,11.43
2018-07-10T01:07:34.448Z,14.83
2018-07-10T01:10:17.332Z,12.63
2018-07-10T01:13:00.385Z,14.13
2018-07-10T01:15:42.981Z,9.97
2018-07-10T01:18:28.965Z,19.20
2018-07-10T01:21:18.178Z,14.87
2018-07-10T01:24:03.668Z,11.67
2018-07-10T01:26:46.914Z,19.57
2018-07-10T01:29:35.386Z,10.77
2018-07-10T01:32:18.237Z,13.37
2018-07-10T01:35:00.979Z,8.80
2018-07-10T01:37:43.620Z,8.10
2018-07-10T01:40:26.826Z,10.13
2018-07-10T01:43:09.238Z,12.80
2018-07-10T01:45:52.247Z,17.20
2018-07-10T01:48:34.561Z,23.80
2018-07-10T01:51:17.387Z,13.70
2018-07-10T01:54:00.299Z,14.40
2018-07-10T01:56:43.060Z,11.10
2018-07-10T01:59:25.819Z,12.20
2018-07-10T02:02:08.350Z,10.50
2018-07-10T02:04:50.694Z,11.63
2018-07-10T02:07:33.731Z,13.27
2018-07-10T02:10:16.529Z,11.70
2018-07-10T02:12:59.445Z,17.23
2018-07-10T02:15:42.101Z,16.73
2018-07-10T02:18:24.944Z,17.77
2018-07-10T02:21:09.411Z,12.27
2018-07-10T02:23:52.900Z,19.07
2018-07-10T02:26:35.578Z,18.07
2018-07-10T02:29:19.480Z,15.43
2018-07-10T02:32:02.721Z,17.53
2018-07-10T02:34:45.537Z,16.97
2018-07-10T02:37:28.358Z,16.37
2018-07-10T02:40:11.276Z,10.33
2018-07-10T02:42:53.984Z,16.93
2018-07-10T02:45:36.578Z,14.67
2018-07-10T02:48:19.449Z,16.40
2018-07-10T02:51:04.499Z,12.50
2018-07-10T02:53:47.253Z,16.80
2018-07-10T02:56:30.191Z,10.90
2018-07-10T02:59:12.492Z,14.30
2018-07-10T03:01:55.578Z,10.80
2018-07-10T03:04:40.987Z,12.53
2018-07-10T03:07:24.027Z,19.70
2018-07-10T03:10:06.414Z,17.10
2018-07-10T03:12:49.316Z,12.43
2018-07-10T03:15:32.785Z,13.67
2018-07-10T03:18:16.340Z,12.30
2018-07-10T03:20:58.572Z,11.47
2018-07-10T03:23:41.527Z,17.30
2018-07-10T03:26:24.253Z,12.10
2018-07-10T03:29:06.409Z,14.67
2018-07-10T03:31:48.680Z,14.23
2018-07-10T03:34:31.748Z,14.10
2018-07-10T03:37:14.375Z,18.30
2018-07-10T03:39:57.212Z,12.43
2018-07-10T03:42:40.559Z,16.20
2018-07-10T03:45:23.664Z,14.60
2018-07-10T03:48:06.406Z,23.20
2018-07-10T03:50:49.095Z,20.00
2018-07-10T03:53:31.927Z,14.43
2018-07-10T03:56:14.656Z,11.30
2018-07-10T03:58:58.824Z,11.80
2018-07-10T04:01:42.182Z,15.03
2018-07-10T04:04:24.986Z,22.33
2018-07-10T04:07:08.068Z,41.20
2018-07-10T04:09:54.086Z,24.40
2018-07-10T04:12:37.392Z,27.73
2018-07-10T04:15:20.069Z,68.47
2018-07-10T04:18:07.742Z,96.43
2018-07-10T04:21:05.968Z,313.47
2018-07-10T04:23:50.165Z,421.33
2018-07-10T04:26:35.327Z,453.63
2018-07-10T04:29:28.797Z,442.40
2018-07-10T04:32:13.782Z,327.23
2018-07-10T04:34:56.549Z,256.63
2018-07-10T04:37:41.491Z,227.93
2018-07-10T04:40:24.869Z,131.53
2018-07-10T04:43:14.855Z,134.40
2018-07-10T04:45:57.924Z,135.80
2018-07-10T04:48:45.053Z,164.13
2018-07-10T04:51:34.306Z,211.20
2018-07-10T04:54:42.058Z,76.30
2018-07-10T04:57:31.938Z,74.50
2018-07-10T05:00:14.598Z,67.00
2018-07-10T05:02:59.053Z,135.70
2018-07-10T05:05:42.129Z,117.63
2018-07-10T05:08:25.255Z,145.43
2018-07-10T05:11:08.254Z,103.57
2018-07-10T05:13:51.876Z,90.33
2018-07-10T05:16:35.342Z,109.40
2018-07-10T05:19:17.614Z,51.73
2018-07-10T05:22:00.608Z,86.37
2018-07-10T05:24:43.542Z,67.20
2018-07-10T05:27:26.392Z,148.90
2018-07-10T05:30:09.513Z,123.67
2018-07-10T05:32:52.038Z,92.87
2018-07-10T05:35:34.755Z,87.27
2018-07-10T05:38:22.552Z,84.13
2018-07-10T05:41:05.971Z,74.07
2018-07-10T05:43:52.052Z,64.13
2018-07-10T05:46:35.696Z,59.33
2018-07-10T05:49:19.039Z,75.23
2018-07-10T05:52:02.021Z,169.37
2018-07-10T05:54:45.691Z,148.47
2018-07-10T05:57:27.998Z,193.67
2018-07-10T06:00:11.000Z,137.93
2018-07-10T06:02:54.820Z,225.33
2018-07-10T06:05:37.351Z,112.97
2018-07-10T06:08:20.287Z,92.83
2018-07-10T06:11:03.489Z,54.77
2018-07-10T06:13:46.495Z,30.93
2018-07-10T06:16:29.720Z,44.03
2018-07-10T06:19:12.422Z,25.20
2018-07-10T06:21:57.704Z,19.10
2018-07-10T06:24:40.931Z,19.80
2018-07-10T06:27:25.713Z,14.70
2018-07-10T06:30:10.850Z,23.53
2018-07-10T06:33:00.220Z,13.50
2018-07-10T06:35:47.216Z,13.37
2018-07-10T06:38:29.739Z,21.40
2018-07-10T06:41:13.308Z,18.23
2018-07-10T06:43:58.769Z,29.17
2018-07-10T06:46:43.167Z,10.77
2018-07-10T06:49:34.954Z,23.23
2018-07-10T06:52:19.223Z,16.27
2018-07-10T06:55:22.434Z,10.53
2018-07-10T06:58:05.640Z,16.77
2018-07-10T07:00:49.552Z,13.23
2018-07-10T07:03:32.850Z,11.23
2018-07-10T07:06:15.343Z,13.80
2018-07-10T07:08:59.241Z,9.10
2018-07-10T07:11:41.691Z,11.93
2018-07-10T07:14:25.171Z,9.03
2018-07-10T07:17:08.386Z,11.50
2018-07-10T07:19:51.062Z,11.23
2018-07-10T07:22:34.812Z,11.33
2018-07-10T07:25:17.575Z,10.15
2018-07-10T07:28:00.193Z,13.00
2018-07-10T07:30:42.737Z,9.85
2018-07-10T07:33:25.631Z,9.03
2018-07-10T07:36:07.788Z,11.00
2018-07-10T07:38:51.073Z,11.70
2018-07-10T07:41:34.308Z,17.70
2018-07-10T07:44:17.228Z,15.15
2018-07-10T07:47:00.027Z,13.00
2018-07-10T07:49:42.628Z,14.90
2018-07-10T07:52:27.209Z,17.42
2018-07-10T07:55:10.317Z,15.30
2018-07-10T07:57:52.884Z,11.35
2018-07-10T08:00:35.898Z,13.48
2018-07-10T08:03:18.525Z,13.10
2018-07-10T08:06:01.762Z,15.18
2018-07-10T08:08:44.856Z,11.10
2018-07-10T08:11:27.572Z,13.30
2018-07-10T08:14:10.662Z,8.20
2018-07-10T08:16:53.338Z,14.40
2018-07-10T08:19:36.261Z,15.15
2018-07-10T08:22:25.672Z,13.10
2018-07-10T08:25:08.427Z,18.40
2018-07-10T08:27:52.018Z,8.35
2018-07-10T08:30:34.496Z,9.43
2018-07-10T08:33:17.284Z,6.95
2018-07-10T08:36:00.249Z,12.75
2018-07-10T08:38:44.994Z,8.43
2018-07-10T08:41:29.452Z,9.03
2018-07-10T08:44:12.996Z,11.50
2018-07-10T08:46:57.677Z,8.45
2018-07-10T08:49:40.998Z,8.75
2018-07-10T08:52:24.007Z,7.95
2018-07-10T08:55:06.544Z,11.25
2018-07-10T08:57:50.153Z,8.65
2018-07-10T09:00:34.336Z,18.02
2018-07-10T09:03:17.067Z,16.82
2018-07-10T09:05:59.710Z,11.40
2018-07-10T09:08:42.485Z,15.25
2018-07-10T09:11:25.400Z,10.75
2018-07-10T09:14:08.017Z,12.25
2018-07-10T09:16:50.751Z,11.97
2018-07-10T09:19:33.579Z,10.45
2018-07-10T09:22:16.719Z,15.32
2018-07-10T09:24:58.631Z,11.22
2018-07-10T09:27:40.892Z,9.60
2018-07-10T09:30:23.924Z,8.80
2018-07-10T09:33:06.579Z,14.68
2018-07-10T09:35:51.924Z,15.08
2018-07-10T09:38:36.480Z,13.88
2018-07-10T09:41:18.850Z,8.95
2018-07-10T09:44:02.256Z,21.27
2018-07-10T09:46:45.546Z,11.48
2018-07-10T09:49:28.340Z,9.78
2018-07-10T09:52:11.468Z,14.60
2018-07-10T09:54:54.615Z,11.22
2018-07-10T09:57:39.051Z,16.10
2018-07-10T10:00:33.042Z,13.40
2018-07-10T10:03:15.852Z,19.77
2018-07-10T10:05:58.564Z,10.20
2018-07-10T10:08:41.452Z,10.68
2018-07-10T10:11:23.820Z,18.02
2018-07-10T10:14:07.156Z,7.75
2018-07-10T10:16:49.847Z,11.33
2018-07-10T10:19:32.373Z,12.70
2018-07-10T10:22:15.380Z,7.12
2018-07-10T10:24:58.785Z,8.28
2018-07-10T10:27:42.696Z,13.78
2018-07-10T10:30:24.961Z,13.15
2018-07-10T10:33:08.180Z,18.52
2018-07-10T10:35:50.631Z,13.53
2018-07-10T10:38:33.750Z,9.50
2018-07-10T10:41:17.491Z,12.58
2018-07-10T10:44:00.288Z,7.22
2018-07-10T10:46:43.988Z,11.05
2018-07-10T10:49:28.734Z,10.78
2018-07-10T10:52:11.013Z,14.47
2018-07-10T10:54:53.940Z,9.00
2018-07-10T10:57:38.374Z,9.05
2018-07-10T11:00:20.642Z,9.20
2018-07-10T11:03:04.002Z,13.95
2018-07-10T11:05:46.849Z,20.30
2018-07-10T11:08:29.440Z,9.93
2018-07-10T11:11:12.312Z,14.25
2018-07-10T11:13:55.087Z,8.85
2018-07-10T11:16:43.323Z,15.20
2018-07-10T11:19:31.100Z,8.10
2018-07-10T11:22:15.750Z,9.13
2018-07-10T11:25:09.371Z,11.73
2018-07-10T11:28:08.212Z,8.30
2018-07-10T11:30:52.048Z,8.20
2018-07-10T11:33:35.108Z,14.20
2018-07-10T11:36:22.882Z,8.23
2018-07-10T11:39:08.083Z,8.48
2018-07-10T11:41:52.709Z,15.25
2018-07-10T11:44:35.835Z,13.32
2018-07-10T11:47:18.591Z,17.55
2018-07-10T11:50:02.697Z,18.32
2018-07-10T11:52:47.791Z,9.43
2018-07-10T11:55:30.460Z,17.92
2018-07-10T11:58:13.179Z,18.02
2018-07-10T12:00:56.039Z,8.98
2018-07-10T12:03:40.286Z,10.32
2018-07-10T12:06:22.730Z,11.55
2018-07-10T12:09:05.781Z,14.38
2018-07-10T12:11:48.381Z,13.25
2018-07-10T12:14:31.213Z,13.30
2018-07-10T12:17:14.065Z,12.20
2018-07-10T12:19:57.113Z,12.98
2018-07-10T12:22:40.438Z,13.18
2018-07-10T12:25:23.582Z,13.55
2018-07-10T12:28:07.256Z,8.78
2018-07-10T12:30:50.203Z,12.60
2018-07-10T12:33:32.988Z,9.18
2018-07-10T12:36:15.597Z,9.45
2018-07-10T12:38:58.222Z,12.82
2018-07-10T12:41:41.109Z,8.13
2018-07-10T12:44:23.987Z,7.70
2018-07-10T12:47:07.017Z,7.55
2018-07-10T12:49:50.208Z,7.42
2018-07-10T12:52:32.685Z,7.67
2018-07-10T12:55:16.287Z,12.37
2018-07-10T12:57:59.469Z,16.77
2018-07-10T13:00:42.112Z,13.58
2018-07-10T13:03:25.045Z,9.33
2018-07-10T13:06:08.081Z,11.57
2018-07-10T13:08:50.572Z,11.88
2018-07-10T13:11:33.683Z,9.10
2018-07-10T13:14:16.361Z,7.17
2018-07-10T13:16:59.476Z,7.87
2018-07-10T13:19:42.196Z,7.60
2018-07-10T13:22:25.385Z,10.75
2018-07-10T13:25:08.031Z,12.90
2018-07-10T13:27:51.350Z,7.30
2018-07-10T13:30:33.848Z,8.30
2018-07-10T13:33:17.003Z,9.68
2018-07-10T13:35:59.871Z,9.68
2018-07-10T13:38:42.903Z,11.35
2018-07-10T13:41:25.564Z,13.53
2018-07-10T13:44:08.300Z,5.92
2018-07-10T13:46:51.180Z,10.18
2018-07-10T13:49:33.951Z,14.28
2018-07-10T13:52:16.739Z,7.45
2018-07-10T13:55:05.396Z,7.50
2018-07-10T13:58:15.900Z,16.25
2018-07-10T14:01:03.995Z,9.53
2018-07-10T14:03:47.507Z,9.50
2018-07-10T14:06:29.880Z,11.43
2018-07-10T14:09:12.598Z,9.45
2018-07-10T14:11:55.842Z,6.05
2018-07-10T14:14:38.580Z,7.72
2018-07-10T14:17:21.337Z,217.13
2018-07-10T14:20:04.681Z,10.50
2018-07-10T14:22:47.871Z,5.78
2018-07-10T14:25:30.785Z,5.53
2018-07-10T14:28:14.165Z,7.83
2018-07-10T14:30:57.909Z,10.68
2018-07-10T14:33:40.486Z,9.65
2018-07-10T14:36:23.027Z,5.37
2018-07-10T14:39:06.230Z,8.13
2018-07-10T14:41:49.291Z,13.35
2018-07-10T14:44:32.698Z,6.85
2018-07-10T14:47:15.823Z,9.10
2018-07-10T14:49:58.374Z,5.03
2018-07-10T14:52:40.952Z,3.95
2018-07-10T14:55:23.813Z,7.00
2018-07-10T14:58:07.692Z,4.22
2018-07-10T15:00:50.772Z,8.93
2018-07-10T15:03:33.323Z,5.22
2018-07-10T15:06:16.101Z,3.00
2018-07-10T15:08:58.729Z,6.50
2018-07-10T15:11:42.522Z,3.62
2018-07-10T15:14:25.733Z,4.35
2018-07-10T15:17:13.639Z,3.87
2018-07-10T15:19:56.180Z,3.52
2018-07-10T15:22:41.731Z,5.60
2018-07-10T15:25:24.603Z,7.42
2018-07-10T15:28:07.593Z,3.92
2018-07-10T15:30:50.062Z,10.15
2018-07-10T15:33:33.012Z,3.83
2018-07-10T15:36:16.258Z,4.75
2018-07-10T15:38:58.931Z,5.75
2018-07-10T15:41:41.626Z,2.98
2018-07-10T15:44:24.476Z,3.30
2018-07-10T15:47:07.378Z,4.05
2018-07-10T15:49:50.154Z,6.20
2018-07-10T15:52:32.981Z,10.93
2018-07-10T15:55:19.377Z,2.67
2018-07-10T15:58:01.850Z,6.97
2018-07-10T16:00:45.157Z,3.98
2018-07-10T16:03:28.410Z,3.10
2018-07-10T16:06:11.144Z,3.37
2018-07-10T16:09:00.934Z,5.62
2018-07-10T16:11:43.774Z,4.92
2018-07-10T16:14:34.554Z,8.75
2018-07-10T16:17:26.606Z,4.97
2018-07-10T16:20:10.857Z,4.25
2018-07-10T16:22:53.444Z,5.33
2018-07-10T16:25:36.295Z,4.40
2018-07-10T16:28:23.373Z,4.75
2018-07-10T16:31:06.061Z,6.40
2018-07-10T16:33:50.271Z,3.37
2018-07-10T16:36:32.530Z,2.60
2018-07-10T16:39:15.344Z,3.58
2018-07-10T16:42:03.094Z,11.45
2018-07-10T16:44:46.501Z,9.18
2018-07-10T16:47:34.410Z,3.00
2018-07-10T16:50:17.109Z,9.38
2018-07-10T16:53:00.591Z,2.92
2018-07-10T16:55:44.448Z,5.00
2018-07-10T16:58:27.901Z,2.75
2018-07-10T17:01:11.884Z,3.45
2018-07-10T17:03:55.233Z,3.70
2018-07-10T17:06:40.314Z,3.40
2018-07-10T17:09:23.102Z,9.15
2018-07-10T17:12:06.582Z,4.58
2018-07-10T17:14:53.484Z,6.35
2018-07-10T17:17:36.148Z,2.87
2018-07-10T17:20:18.639Z,10.68
2018-07-10T17:23:02.596Z,5.83
2018-07-10T17:25:45.597Z,4.53
2018-07-10T17:28:28.389Z,5.30
2018-07-10T17:31:10.993Z,3.42
2018-07-10T17:33:53.858Z,4.78
2018-07-10T17:36:36.412Z,9.53
2018-07-10T17:39:19.306Z,5.30
2018-07-10T17:42:04.153Z,6.20
2018-07-10T17:44:46.951Z,6.37
2018-07-10T17:47:29.639Z,4.62
2018-07-10T17:50:12.461Z,4.37
2018-07-10T17:52:55.322Z,6.63
2018-07-10T17:55:37.930Z,10.18
2018-07-10T17:58:22.026Z,4.20
2018-07-10T18:01:04.779Z,9.90
2018-07-10T18:03:47.180Z,7.97
2018-07-10T18:06:36.338Z,6.27
2018-07-10T18:09:18.529Z,6.07
2018-07-10T18:12:00.932Z,6.53
2018-07-10T18:14:44.076Z,8.03
2018-07-10T18:17:27.032Z,7.10
2018-07-10T18:20:09.937Z,8.07
2018-07-10T18:22:52.699Z,6.40
2018-07-10T18:25:35.435Z,6.07
2018-07-10T18:28:18.156Z,9.50
2018-07-10T18:31:01.016Z,5.50
2018-07-10T18:33:43.912Z,8.73
2018-07-10T18:36:26.232Z,6.63
2018-07-10T18:39:09.032Z,21.17
2018-07-10T18:41:51.738Z,7.77
2018-07-10T18:44:34.836Z,15.70
2018-07-10T18:47:17.869Z,8.27
2018-07-10T18:50:01.376Z,10.63
2018-07-10T18:52:44.472Z,11.60
2018-07-10T18:55:27.617Z,15.93
2018-07-10T18:58:26.193Z,7.30
2018-07-10T19:03:15.405Z,9.47
2018-07-10T19:06:02.094Z,5.87
2018-07-10T19:08:46.679Z,10.17
2018-07-10T19:11:29.409Z,6.80
2018-07-10T19:14:12.312Z,5.60
2018-07-10T19:16:54.721Z,11.00
2018-07-10T19:19:38.326Z,7.10
2018-07-10T19:22:23.252Z,14.13
2018-07-10T19:25:05.912Z,7.30
2018-07-10T19:27:52.112Z,7.50
2018-07-10T19:30:46.696Z,12.73
2018-07-10T19:33:30.127Z,8.80
2018-07-10T19:36:13.765Z,11.70
2018-07-10T19:38:56.001Z,13.77
2018-07-10T19:41:38.318Z,18.20
2018-07-10T19:44:21.384Z,10.37
2018-07-10T19:47:04.799Z,11.60
2018-07-10T19:49:50.514Z,10.30
2018-07-10T19:52:34.092Z,14.93
2018-07-10T19:55:16.945Z,13.70
2018-07-10T19:58:11.065Z,11.90
2018-07-10T20:02:02.529Z,12.80
2018-07-10T20:05:16.496Z,13.63
2018-07-10T20:08:08.853Z,15.87
2018-07-10T20:10:57.052Z,19.17
2018-07-10T20:13:48.676Z,10.27
2018-07-10T20:16:39.296Z,20.63
2018-07-10T20:20:33.902Z,11.03
2018-07-10T20:23:21.876Z,9.57
2018-07-10T20:26:10.710Z,16.20
2018-07-10T20:29:03.972Z,20.33
2018-07-10T20:31:58.289Z,13.23
2018-07-10T20:34:56.512Z,9.50
2018-07-10T20:37:39.612Z,16.37
2018-07-10T20:40:30.152Z,14.77
2018-07-10T20:43:15.765Z,8.20
2018-07-10T20:45:58.736Z,15.43
2018-07-10T20:48:46.822Z,23.97
2018-07-10T20:51:33.986Z,29.93
2018-07-10T20:54:19.100Z,14.73
2018-07-10T20:57:15.648Z,21.83
2018-07-10T21:00:10.993Z,7.97
2018-07-10T21:03:17.845Z,18.43
2018-07-10T21:06:13.055Z,14.83
2018-07-10T21:09:12.689Z,25.50
2018-07-10T21:14:15.248Z,29.93
2018-07-10T21:17:12.439Z,22.30
2018-07-10T21:20:05.864Z,20.30
2018-07-10T21:23:15.583Z,43.67
2018-07-10T21:26:06.502Z,24.07
2018-07-10T21:28:55.225Z,14.73
2018-07-10T21:31:43.880Z,22.20
2018-07-10T21:34:47.890Z,39.77
2018-07-10T21:39:13.989Z,20.63
2018-07-10T21:42:22.833Z,33.47
2018-07-10T21:45:13.544Z,37.70
2018-07-10T21:48:11.121Z,21.93
2018-07-10T21:50:54.430Z,29.27
2018-07-10T21:53:37.688Z,66.73
2018-07-10T21:56:20.066Z,22.67
2018-07-10T21:59:04.178Z,17.50
2018-07-10T22:01:53.810Z,16.30
2018-07-10T22:04:37.480Z,21.47
2018-07-10T22:07:20.206Z,30.83
2018-07-10T22:10:05.597Z,27.13
2018-07-10T22:12:48.599Z,10.93
2018-07-10T22:15:31.269Z,13.07
2018-07-10T22:18:14.074Z,13.00
2018-07-10T22:20:56.716Z,14.43
2018-07-10T22:23:39.827Z,18.43
2018-07-10T22:26:22.264Z,14.90
2018-07-10T22:29:05.028Z,17.90
2018-07-10T22:31:52.921Z,17.20
2018-07-10T22:34:35.751Z,52.23
2018-07-10T22:37:18.579Z,29.80
2018-07-10T22:40:01.523Z,19.07
2018-07-10T22:42:44.645Z,15.73
2018-07-10T22:45:28.608Z,11.43
2018-07-10T22:48:10.984Z,15.67
2018-07-10T22:50:53.661Z,12.53
2018-07-10T22:53:36.371Z,23.20
2018-07-10T22:56:20.370Z,17.67
2018-07-10T22:59:03.926Z,12.75
2018-07-10T23:01:46.370Z,20.73
2018-07-10T23:04:29.276Z,8.03
2018-07-10T23:07:11.998Z,12.83
2018-07-10T23:09:55.142Z,13.27
2018-07-10T23:12:42.104Z,12.50
2018-07-10T23:15:26.111Z,21.13
2018-07-10T23:18:12.584Z,11.80
2018-07-10T23:20:55.844Z,13.50
2018-07-10T23:23:38.586Z,14.30
2018-07-10T23:26:21.102Z,10.37
2018-07-10T23:29:04.544Z,17.47
2018-07-10T23:31:47.728Z,15.10
2018-07-10T23:34:30.653Z,16.13
2018-07-10T23:37:14.401Z,22.30
2018-07-10T23:40:03.036Z,16.20
2018-07-10T23:42:46.089Z,8.50
2018-07-10T23:45:28.875Z,14.43
2018-07-10T23:48:11.591Z,11.60
2018-07-10T23:50:54.371Z,9.97
2018-07-10T23:53:41.289Z,9.67
2018-07-10T23:56:24.244Z,17.43
2018-07-10T23:59:06.828Z,9.00
